Time;durP1;ratioP1;P1;durP2;ratioP2;P2;SDS_P1;SDS_P2;PMS_P1;PMS_P2;Temp;Humidity;BMP_temperature;BMP_pressure;BME280_temperature;BME280_humidity;BME280_pressure;Samples;Min_cycle;Max_cycle;Signal;HPM_P1;HPM_P2
2022/04/07 00:02:08;;;;;;;18.00;7.00;;;;;;;;;;4875507;29;20048;-91
2022/04/07 00:04:43;;;;;;;11.05;6.10;;;;;;;;;;4887758;29;20051;-91
2022/04/07 00:07:15;;;;;;;12.60;5.53;;;;;;;;;;4875203;29;20036;-91
2022/04/07 00:09:44;;;;;;;13.57;6.25;;;;;;;;;;4888233;29;20494;-92
2022/04/07 00:12:11;;;;;;;13.50;5.78;;;;;;;;;;4860206;29;20505;-90
2022/04/07 00:14:43;;;;;;;13.57;5.20;;;;;;;;;;4871145;29;20113;-91
2022/04/07 00:17:10;;;;;;;11.25;6.30;;;;;;;;;;4874837;29;20040;-91
2022/04/07 00:19:39;;;;;;;14.98;6.55;;;;;;;;;;4856161;29;20055;-90
2022/04/07 00:22:08;;;;;;;14.05;6.30;;;;;;;;;;4870554;29;20986;-91
2022/04/07 00:24:46;;;;;;;14.93;6.63;;;;;;;;;;4887772;29;20072;-93
2022/04/07 00:27:12;;;;;;;15.32;6.93;;;;;;;;;;4881846;29;20437;-91
2022/04/07 00:29:39;;;;;;;17.25;6.90;;;;;;;;;;4873738;29;20126;-91
2022/04/07 00:32:09;;;;;;;15.02;7.45;;;;;;;;;;4863719;29;20277;-91
2022/04/07 00:34:44;;;;;;;18.98;9.32;;;;;;;;;;4868866;29;20084;-93
2022/04/07 00:37:13;;;;;;;16.05;8.18;;;;;;;;;;4880026;29;20048;-91
2022/04/07 00:39:39;;;;;;;22.50;8.88;;;;;;;;;;4889461;29;20509;-90
2022/04/07 00:42:06;;;;;;;24.13;9.38;;;;;;;;;;4874150;29;20052;-90
2022/04/07 00:44:32;;;;;;;20.02;9.43;;;;;;;;;;4872396;29;20076;-90
2022/04/07 00:47:01;;;;;;;17.30;10.55;;;;;;;;;;4866715;29;20040;-90
2022/04/07 00:49:35;;;;;;;25.27;12.27;;;;;;;;;;4875538;29;20048;-90
2022/04/07 00:52:01;;;;;;;26.45;13.25;;;;;;;;;;4871923;29;20091;-92
2022/04/07 00:54:27;;;;;;;31.88;16.00;;;;;;;;;;4876172;29;20956;-90
2022/04/07 00:56:55;;;;;;;35.60;16.52;;;;;;;;;;4875273;29;20595;-89
2022/04/07 00:59:25;;;;;;;27.67;13.57;;;;;;;;;;4872974;29;20037;-89
2022/04/07 01:01:51;;;;;;;26.95;13.52;;;;;;;;;;4867195;29;20155;-89
2022/04/07 01:04:17;;;;;;;27.85;16.08;;;;;;;;;;4877338;29;20043;-90
2022/04/07 01:06:44;;;;;;;30.88;18.80;;;;;;;;;;4860804;29;20039;-90
2022/04/07 01:09:11;;;;;;;26.63;19.25;;;;;;;;;;4875633;29;20161;-90
2022/04/07 01:11:46;;;;;;;28.27;19.60;;;;;;;;;;4876222;29;20045;-90
2022/04/07 01:14:12;;;;;;;23.80;15.25;;;;;;;;;;4880519;29;20046;-89
2022/04/07 01:16:39;;;;;;;31.98;18.55;;;;;;;;;;4880849;29;20547;-89
2022/04/07 01:19:05;;;;;;;19.75;13.48;;;;;;;;;;4872745;29;20120;-90
2022/04/07 01:21:35;;;;;;;21.65;13.63;;;;;;;;;;4875806;29;20127;-90
2022/04/07 01:24:08;;;;;;;19.58;13.45;;;;;;;;;;4875533;29;20486;-88
2022/04/07 01:26:38;;;;;;;20.15;15.30;;;;;;;;;;4901819;29;20036;-90
2022/04/07 01:29:09;;;;;;;31.17;19.17;;;;;;;;;;4875371;29;20036;-89
2022/04/07 01:31:36;;;;;;;31.45;19.67;;;;;;;;;;4881083;29;20074;-89
2022/04/07 01:34:02;;;;;;;31.38;18.15;;;;;;;;;;4889649;29;20434;-90
2022/04/07 01:36:30;;;;;;;28.13;17.20;;;;;;;;;;4875231;29;20108;-90
2022/04/07 01:39:00;;;;;;;25.13;15.32;;;;;;;;;;4878570;29;20178;-90
2022/04/07 01:41:29;;;;;;;23.90;13.57;;;;;;;;;;4873792;29;20056;-91
2022/04/07 01:43:58;;;;;;;19.85;11.50;;;;;;;;;;4877222;29;20095;-91
2022/04/07 01:46:25;;;;;;;23.02;12.65;;;;;;;;;;4888137;29;20045;-91
2022/04/07 01:48:52;;;;;;;25.27;13.15;;;;;;;;;;4882315;29;20413;-92
2022/04/07 01:51:18;;;;;;;21.67;12.18;;;;;;;;;;4880290;29;20090;-91
2022/04/07 01:53:51;;;;;;;18.85;12.18;;;;;;;;;;4881630;29;20537;-92
2022/04/07 01:56:26;;;;;;;16.15;10.10;;;;;;;;;;4896466;29;20036;-89
2022/04/07 01:59:00;;;;;;;17.23;8.35;;;;;;;;;;4880110;29;20036;-89
2022/04/07 02:01:27;;;;;;;16.90;8.35;;;;;;;;;;4878114;29;20092;-91
2022/04/07 02:03:53;;;;;;;16.13;8.15;;;;;;;;;;4877389;29;20090;-92
2022/04/07 02:06:26;;;;;;;13.32;6.35;;;;;;;;;;4876007;29;20494;-93
2022/04/07 02:08:52;;;;;;;;;;;;;;;;;;4865848;29;20048;-92
2022/04/07 02:11:18;;;;;;;15.73;6.68;;;;;;;;;;4879747;29;20075;-91
2022/04/07 02:13:44;;;;;;;11.77;5.53;;;;;;;;;;4877693;29;20092;-91
2022/04/07 02:16:11;;;;;;;10.93;4.55;;;;;;;;;;4881185;29;20047;-90
2022/04/07 02:18:38;;;;;;;11.45;4.53;;;;;;;;;;4883197;29;20047;-90
2022/04/07 02:21:12;;;;;;;9.88;4.45;;;;;;;;;;4887342;29;20179;-90
2022/04/07 02:23:47;;;;;;;16.58;4.90;;;;;;;;;;4877766;29;20505;-90
2022/04/07 02:26:17;;;;;;;12.07;4.05;;;;;;;;;;4869057;29;20099;-94
2022/04/07 02:29:12;;;;;;;12.50;4.43;;;;;;;;;;4874368;29;20036;-89
2022/04/07 02:31:49;;;;;;;;;;;;;;;;;;;;;
2022/04/07 02:34:17;;;;;;;14.35;4.45;;;;;;;;;;4888495;29;20052;-91
2022/04/07 02:36:45;;;;;;;17.88;4.78;;;;;;;;;;4864053;29;20066;-90
2022/04/07 02:39:12;;;;;;;16.25;5.20;;;;;;;;;;4860689;29;20545;-91
2022/04/07 02:41:42;;;;;;;16.23;5.78;;;;;;;;;;4876756;29;20062;-91
2022/04/07 02:44:37;;;;;;;15.93;5.88;;;;;;;;;;4875338;29;20048;-91
2022/04/07 02:47:09;;;;;;;13.65;4.53;;;;;;;;;;4878823;29;20366;-91
2022/04/07 02:49:39;;;;;;;14.68;4.63;;;;;;;;;;4878467;29;20545;-91
2022/04/07 02:52:12;;;;;;;17.08;5.10;;;;;;;;;;4894551;29;20123;-92
2022/04/07 02:54:38;;;;;;;;;;;;;;;;;;4879845;29;20050;-92
2022/04/07 02:57:05;;;;;;;23.90;6.15;;;;;;;;;;4879538;29;19923;-90
2022/04/07 02:59:35;;;;;;;18.45;5.00;;;;;;;;;;4887560;29;20060;-92
2022/04/07 03:02:09;;;;;;;19.98;6.28;;;;;;;;;;4882941;29;20043;-92
2022/04/07 03:04:59;;;;;;;19.65;5.32;;;;;;;;;;4865026;29;20058;-92
2022/04/07 03:07:30;;;;;;;20.42;6.63;;;;;;;;;;4875329;29;20047;-91
2022/04/07 03:10:00;;;;;;;14.00;5.15;;;;;;;;;;4870641;29;20379;-92
2022/04/07 03:12:26;;;;;;;18.58;6.45;;;;;;;;;;4874004;29;20579;-92
2022/04/07 03:14:56;;;;;;;19.55;6.10;;;;;;;;;;4874757;29;20036;-93
2022/04/07 03:17:22;;;;;;;15.57;5.72;;;;;;;;;;4872183;29;20067;-90
2022/04/07 03:19:54;;;;;;;16.65;4.85;;;;;;;;;;4892814;29;20040;-91
2022/04/07 03:22:20;;;;;;;18.80;6.00;;;;;;;;;;4874764;29;20044;-91
2022/04/07 03:24:56;;;;;;;19.73;5.30;;;;;;;;;;4880817;29;20055;-91
2022/04/07 03:27:22;;;;;;;25.83;5.38;;;;;;;;;;4873257;29;20040;-91
2022/04/07 03:30:00;;;;;;;13.15;4.82;;;;;;;;;;4875152;29;20756;-89
2022/04/07 03:32:26;;;;;;;18.88;5.68;;;;;;;;;;4880025;29;20413;-91
2022/04/07 03:34:53;;;;;;;23.10;5.68;;;;;;;;;;4880566;29;20044;-90
2022/04/07 03:37:22;;;;;;;18.75;5.25;;;;;;;;;;4871368;29;20048;-90
2022/04/07 03:40:00;;;;;;;16.00;5.67;;;;;;;;;;4871719;29;20040;-91
2022/04/07 03:42:27;;;;;;;24.25;5.45;;;;;;;;;;4892257;29;20305;-90
2022/04/07 03:44:55;;;;;;;15.27;6.18;;;;;;;;;;4866548;29;20049;-91
2022/04/07 03:50:30;;;;;;;13.65;5.20;;;;;;;;;;4887493;29;20233;-92
2022/04/07 03:52:59;;;;;;;14.57;5.20;;;;;;;;;;4897758;29;20394;-90
2022/04/07 03:55:58;;;;;;;12.38;4.68;;;;;;;;;;4884570;29;20054;-91
2022/04/07 03:58:26;;;;;;;16.73;4.53;;;;;;;;;;4874280;29;20044;-92
2022/04/07 04:00:58;;;;;;;14.68;4.75;;;;;;;;;;4876408;29;20442;-94
2022/04/07 04:03:24;;;;;;;13.60;4.68;;;;;;;;;;4876306;29;20043;-92
2022/04/07 04:05:53;;;;;;;11.18;3.95;;;;;;;;;;4892073;29;20043;-91
2022/04/07 04:08:23;;;;;;;14.73;4.95;;;;;;;;;;4884128;29;20382;-92
2022/04/07 04:10:49;;;;;;;16.85;4.95;;;;;;;;;;4871260;29;20045;-92
2022/04/07 04:13:28;;;;;;;11.18;4.00;;;;;;;;;;4873519;29;20107;-90
2022/04/07 04:16:01;;;;;;;10.68;5.00;;;;;;;;;;4879675;29;20095;-90
2022/04/07 04:18:28;;;;;;;14.00;5.28;;;;;;;;;;4879777;29;20528;-92
2022/04/07 04:20:57;;;;;;;18.38;4.97;;;;;;;;;;4878784;29;20099;-93
2022/04/07 04:23:30;;;;;;;19.27;5.25;;;;;;;;;;4881260;29;20349;-92
2022/04/07 04:25:59;;;;;;;20.73;5.95;;;;;;;;;;4885610;29;20645;-91
2022/04/07 04:28:28;;;;;;;19.55;4.85;;;;;;;;;;4880984;29;20052;-93
2022/04/07 04:30:58;;;;;;;33.88;6.70;;;;;;;;;;4886097;29;20096;-91
2022/04/07 04:33:36;;;;;;;27.27;5.97;;;;;;;;;;4886555;29;20036;-92
2022/04/07 04:36:09;;;;;;;29.73;6.30;;;;;;;;;;4898101;29;21298;-92
2022/04/07 04:38:35;;;;;;;25.70;6.00;;;;;;;;;;4868642;29;20107;-92
2022/04/07 04:41:04;;;;;;;19.55;6.88;;;;;;;;;;4881012;29;20119;-92
2022/04/07 04:43:30;;;;;;;25.92;6.10;;;;;;;;;;4883529;29;20420;-91
2022/04/07 04:45:56;;;;;;;27.83;6.38;;;;;;;;;;4875730;29;20044;-93
2022/04/07 04:48:23;;;;;;;27.33;6.25;;;;;;;;;;4878528;29;20043;-91
2022/04/07 04:50:55;;;;;;;23.30;5.97;;;;;;;;;;4879832;29;20067;-93
2022/04/07 04:53:30;;;;;;;24.15;5.18;;;;;;;;;;4881653;29;20040;-93
2022/04/07 04:55:57;;;;;;;20.67;4.72;;;;;;;;;;4862954;29;20044;-93
2022/04/07 04:58:23;;;;;;;24.83;5.03;;;;;;;;;;4874648;29;20044;-92
2022/04/07 05:00:49;;;;;;;17.48;4.05;;;;;;;;;;4881586;29;20048;-93
2022/04/07 05:03:16;;;;;;;25.45;4.95;;;;;;;;;;4879595;29;20126;-92
2022/04/07 05:05:42;;;;;;;27.75;5.90;;;;;;;;;;4881348;29;20048;-92
2022/04/07 05:08:11;;;;;;;29.52;6.03;;;;;;;;;;4875391;29;20052;-91
2022/04/07 05:10:40;;;;;;;26.17;6.45;;;;;;;;;;4867050;29;20084;-91
2022/04/07 05:13:12;;;;;;;35.78;6.50;;;;;;;;;;4873380;29;20051;-91
2022/04/07 05:15:39;;;;;;;29.70;7.03;;;;;;;;;;4866687;29;20036;-91
2022/04/07 05:18:05;;;;;;;31.33;7.28;;;;;;;;;;4869814;29;20060;-91
2022/04/07 05:20:32;;;;;;;28.00;7.82;;;;;;;;;;4882435;29;20047;-93
2022/04/07 05:22:58;;;;;;;40.58;9.57;;;;;;;;;;4869140;29;20044;-90
2022/04/07 05:25:24;;;;;;;41.67;11.55;;;;;;;;;;4871051;29;20817;-91
2022/04/07 05:27:54;;;;;;;35.80;9.43;;;;;;;;;;4860287;29;20050;-91
2022/04/07 05:30:20;;;;;;;32.22;10.15;;;;;;;;;;4876476;29;20549;-90
2022/04/07 05:32:49;;;;;;;27.90;8.45;;;;;;;;;;4873793;29;20534;-89
2022/04/07 05:38:08;;;;;;;31.75;9.98;;;;;;;;;;4877276;29;20561;-88
2022/04/07 05:40:37;;;;;;;35.38;10.60;;;;;;;;;;4870114;29;20044;-90
2022/04/07 05:43:04;;;;;;;33.15;9.63;;;;;;;;;;4860636;29;20060;-92
2022/04/07 05:45:30;;;;;;;28.00;8.68;;;;;;;;;;4874413;29;20055;-91
2022/04/07 05:47:56;;;;;;;27.33;9.73;;;;;;;;;;4879432;29;20044;-90
2022/04/07 05:50:23;;;;;;;18.38;7.75;;;;;;;;;;4877036;29;20051;-92
2022/04/07 05:52:52;;;;;;;19.00;8.07;;;;;;;;;;4897542;29;20044;-91
2022/04/07 05:55:19;;;;;;;27.05;7.80;;;;;;;;;;4892798;29;20521;-89
2022/04/07 05:57:54;;;;;;;23.25;8.23;;;;;;;;;;4888318;29;20119;-90
2022/04/07 06:00:27;;;;;;;26.85;9.70;;;;;;;;;;4874137;29;20040;-90
2022/04/07 06:03:09;;;;;;;37.80;9.88;;;;;;;;;;4890109;29;20048;-91
2022/04/07 06:05:35;;;;;;;8.13;1.20;;;;;;;;;;4872385;29;20820;-92
2022/04/07 06:08:02;;;;;;;3.60;0.80;;;;;;;;;;4872138;29;20066;-90
2022/04/07 06:10:32;;;;;;;8.40;0.68;;;;;;;;;;4891388;29;20458;-89
2022/04/07 06:12:58;;;;;;;5.82;0.60;;;;;;;;;;4875308;29;20044;-92
2022/04/07 06:15:24;;;;;;;2.63;0.70;;;;;;;;;;4869416;29;21025;-88
2022/04/07 06:17:50;;;;;;;6.95;0.80;;;;;;;;;;4872152;29;20054;-89
2022/04/07 06:20:17;;;;;;;4.78;1.45;;;;;;;;;;4879134;29;20040;-89
2022/04/07 06:22:43;;;;;;;7.20;0.73;;;;;;;;;;4880385;29;20170;-87
2022/04/07 06:25:10;;;;;;;4.35;1.00;;;;;;;;;;4883340;29;20605;-89
2022/04/07 06:27:37;;;;;;;8.95;1.20;;;;;;;;;;4882669;29;20062;-89
2022/04/07 06:30:09;;;;;;;6.85;1.40;;;;;;;;;;4891249;29;20199;-90
2022/04/07 06:32:36;;;;;;;9.57;1.23;;;;;;;;;;4881677;29;20040;-89
2022/04/07 06:35:03;;;;;;;8.65;1.52;;;;;;;;;;4877630;29;20054;-90
2022/04/07 06:37:29;;;;;;;13.32;1.33;;;9.50;99.90;;;;;;4878422;29;20142;-89
2022/04/07 06:40:01;;;;;;;5.90;1.33;;;;;;;;;;4864890;29;20075;-88
2022/04/07 06:42:27;;;;;;;;;;;;;;;;;;4861716;29;20099;-90
2022/04/07 06:44:56;;;;;;;12.07;1.30;;;;;;;;;;4895292;29;19926;-91
2022/04/07 06:47:34;;;;;;;6.78;1.17;;;;;;;;;;4889162;29;20071;-91
2022/04/07 06:50:00;;;;;;;12.60;1.25;;;;;;;;;;4878771;29;20040;-90
2022/04/07 06:52:27;;;;;;;6.75;1.20;;;;;;;;;;4892733;29;20040;-91
2022/04/07 06:54:53;;;;;;;8.00;1.10;;;;;;;;;;4880568;29;20055;-88
2022/04/07 06:57:27;;;;;;;5.88;1.00;;;;;;;;;;4878605;29;20042;-89
2022/04/07 06:59:57;;;;;;;4.18;0.90;;;;;;;;;;4877517;29;20052;-90
2022/04/07 07:02:28;;;;;;;4.57;1.50;;;;;;;;;;4881658;29;20051;-88
2022/04/07 07:04:54;;;;;;;6.60;1.33;;;;;;;;;;4869457;29;20135;-88
2022/04/07 07:07:20;;;;;;;8.02;1.10;;;;;;;;;;4861359;29;20712;-90
2022/04/07 07:09:50;;;;;;;4.18;1.10;;;;;;;;;;4882671;29;20074;-90
2022/04/07 07:12:16;;;;;;;4.47;0.90;;;;;;;;;;4871278;29;20132;-89
2022/04/07 07:14:44;;;;;;;5.65;1.23;;;;;;;;;;4878149;29;20048;-89
2022/04/07 07:17:13;;;;;;;2.95;1.00;;;;;;;;;;4861890;29;20494;-90
2022/04/07 07:19:40;;;;;;;2.58;0.63;;;;;;;;;;4870183;29;20443;-87
2022/04/07 07:22:09;;;;;;;6.32;1.15;;;;;;;;;;4878271;29;20044;-89
2022/04/07 07:24:37;;;;;;;8.52;1.02;;;;;;;;;;4873321;29;20526;-89
2022/04/07 07:27:03;;;;;;;8.82;0.90;;;;;;;;;;4872984;29;20037;-86
2022/04/07 07:29:30;;;;;;;5.47;0.88;;;;;;;;;;4875044;29;20059;-88
2022/04/07 07:31:56;;;;;;;5.10;1.20;;;;;;;;;;4862423;29;20084;-88
2022/04/07 14:08:13;;;;;;;9.45;1.70;;;;;;;;;;4909715;29;20473;-93
2022/04/07 14:10:42;;;;;;;11.18;2.10;;;;;;;;;;4877912;29;20040;-91
2022/04/07 14:13:11;;;;;;;13.02;2.90;;;;;;;;;;4894495;29;20095;-92
2022/04/07 14:15:41;;;;;;;11.48;2.25;;;;;;;;;;4888372;29;20064;-92
2022/04/07 14:18:12;;;;;;;14.45;2.30;;;;;;;;;;4879911;29;20040;-93
2022/04/07 14:20:56;;;;;;;13.27;2.50;;;;;;;;;;4874721;29;20047;-92
2022/04/07 14:23:22;;;;;;;10.48;2.30;;;;;;;;;;4875725;29;20068;-91
2022/04/07 14:25:51;;;;;;;16.33;2.38;;;;;;;;;;4893219;29;20067;-93
2022/04/07 14:28:23;;;;;;;16.17;2.50;;;;;;;;;;4881867;29;20482;-93
2022/04/07 14:30:56;;;;;;;13.02;2.45;;;;;;;;;;4896752;29;20261;-94
2022/04/07 14:34:03;;;;;;;3.35;1.10;;;;;;;;;;4851579;29;20566;-91
2022/04/07 14:36:47;;;;;;;4.78;1.15;;;;;;;;;;4860924;29;20391;-93
2022/04/07 14:39:42;;;;;;;4.85;1.30;;;7.70;99.90;;;;;;4821908;29;20085;-93
2022/04/07 14:42:15;;;;;;;8.80;1.58;;;;;;;;;;4798740;29;20058;-94
2022/04/07 14:45:09;;;;;;;10.35;1.88;;;;;;;;;;4792572;29;20137;-93
2022/04/07 14:47:43;;;;;;;7.63;1.80;;;;;;;;;;4816874;29;20053;-93
2022/04/07 14:50:18;;;;;;;20.20;2.50;;;;;;;;;;4815033;29;20114;-93
2022/04/07 14:53:05;;;;;;;11.25;2.30;;;;;;;;;;4822316;29;20421;-91
2022/04/07 14:55:49;;;;;;;10.02;1.85;;;;;;;;;;4818470;29;20045;-92
2022/04/07 14:58:17;;;;;;;9.27;2.15;;;;;;;;;;4820767;29;20041;-92
2022/04/07 15:00:46;;;;;;;7.90;1.98;;;;;;;;;;4830691;29;20041;-93
2022/04/07 15:03:12;;;;;;;9.43;1.98;;;;;;;;;;4825717;29;20548;-92
2022/04/07 15:05:48;;;;;;;9.13;1.98;;;;;;;;;;4810185;29;20570;-92
2022/04/07 15:08:22;;;;;;;9.57;2.78;;;7.20;99.90;;;;;;4823435;29;20054;-92
2022/04/07 15:10:48;;;;;;;22.02;3.42;;;6.80;99.90;;;;;;4838252;29;20052;-92
2022/04/07 15:13:17;;;;;;;14.02;3.42;;;;;;;;;;4881011;29;20044;-91
2022/04/07 15:15:53;;;;;;;12.90;2.28;;;;;;;;;;4865313;29;20044;-94
2022/04/07 15:18:32;;;;;;;9.27;1.75;;;;;;;;;;4878936;29;20036;-91
2022/04/07 15:20:58;;;;;;;9.73;2.10;;;;;;;;;;4881459;29;20584;-93
2022/04/07 15:23:25;;;;;;;15.10;2.88;;;;;;;;;;4872944;29;20223;-94
2022/04/07 15:26:00;;;;;;;13.18;2.85;;;;;;;;;;4890300;29;20036;-92
2022/04/07 15:28:26;;;;;;;8.65;2.22;;;;;;;;;;4879084;29;20425;-92
2022/04/07 15:30:52;;;;;;;20.73;2.60;;;;;;;;;;4862711;29;20048;-92
2022/04/07 15:33:22;;;;;;;10.82;2.17;;;;;;;;;;4875893;29;20122;-93
2022/04/07 15:35:48;;;;;;;11.15;2.30;;;;;;;;;;4878817;29;20235;-92
2022/04/07 15:38:15;;;;;;;11.00;2.05;;;;;;;;;;4877751;29;20379;-92
2022/04/07 15:40:41;;;;;;;11.63;2.38;;;;;;;;;;4859584;29;20490;-93
2022/04/07 15:43:10;;;;;;;9.65;2.22;;;;;;;;;;4871220;29;20367;-92
2022/04/07 15:45:40;;;;;;;16.15;2.65;;;;;;;;;;4878822;29;20044;-92
2022/04/07 19:17:17;;;;;;;15.18;2.70;;;;;;;;;;4911455;29;20127;-91
2022/04/07 19:19:52;;;;;;;10.65;2.30;;;;;;;;;;4876963;29;20550;-90
2022/04/07 19:22:21;;;;;;;17.15;2.28;;;;;;;;;;4850741;29;20529;-92
2022/04/07 19:24:48;;;;;;;19.05;2.20;;;;;;;;;;4864962;29;20040;-91
2022/04/07 19:27:23;;;;;;;13.82;2.28;;;;;;;;;;4878140;29;20049;-92
2022/04/07 19:29:52;;;;;;;11.35;1.85;;;;;;;;;;4873046;29;20049;-91
